createdAt,value
2024-03-05T00:00:48.894Z,93.05
2024-03-05T00:01:48.850Z,93.05
2024-03-05T00:02:48.896Z,93.16
2024-03-05T00:03:48.814Z,93.26
2024-03-05T00:04:48.906Z,94.02
2024-03-05T00:05:48.796Z,94.33
2024-03-05T00:06:48.783Z,94.02
2024-03-05T00:07:48.809Z,93.51
2024-03-05T00:08:48.773Z,93.61
2024-03-05T00:09:48.763Z,93.71
2024-03-05T00:10:48.915Z,93.71
2024-03-05T00:11:48.828Z,94.33
2024-03-05T00:12:48.727Z,94.23
2024-03-05T00:13:48.714Z,94.02
2024-03-05T00:14:48.699Z,93.71
2024-03-05T00:15:48.679Z,94.23
2024-03-05T00:16:48.788Z,94.02
2024-03-05T00:17:48.731Z,94.12
2024-03-05T00:18:48.649Z,93.40
2024-03-05T00:19:48.695Z,92.89
2024-03-05T00:20:48.625Z,92.95
2024-03-05T00:21:48.623Z,93.30
2024-03-05T00:22:48.700Z,93.20
2024-03-05T00:23:48.604Z,93.40
2024-03-05T00:24:48.583Z,93.20
2024-03-05T00:25:48.616Z,93.40
2024-03-05T00:26:48.575Z,92.85
2024-03-05T00:27:48.568Z,92.27
2024-03-05T00:28:48.602Z,92.27
2024-03-05T00:29:48.539Z,92.17
2024-03-05T00:30:48.545Z,91.45
2024-03-05T00:31:48.651Z,91.61
2024-03-05T00:32:48.541Z,91.51
2024-03-05T00:33:48.495Z,91.97
2024-03-05T00:34:48.559Z,91.72
2024-03-05T00:35:48.481Z,91.72
2024-03-05T00:36:48.458Z,91.72
2024-03-05T00:37:48.486Z,92.23
2024-03-05T00:38:48.452Z,91.86
2024-03-05T00:39:48.438Z,92.03
2024-03-05T00:40:48.450Z,91.97
2024-03-05T00:41:48.409Z,92.38
2024-03-05T00:42:48.392Z,92.13
2024-03-05T00:43:48.413Z,92.74
2024-03-05T00:44:48.369Z,93.92
2024-03-05T00:45:48.384Z,94.12
2024-03-05T00:46:48.384Z,94.49
2024-03-05T00:47:48.364Z,94.18
2024-03-05T00:48:48.334Z,94.08
2024-03-05T00:49:48.407Z,94.43
2024-03-05T00:50:48.323Z,94.39
2024-03-05T00:51:48.322Z,93.87
2024-03-05T00:52:48.364Z,93.71
2024-03-05T00:53:48.290Z,94.18
2024-03-05T00:54:48.276Z,94.23
2024-03-05T00:55:48.279Z,94.08
2024-03-05T00:56:48.300Z,94.18
2024-03-05T00:57:48.258Z,94.39
2024-03-05T00:58:48.258Z,94.18
2024-03-05T00:59:49.759Z,94.08
2024-03-05T01:00:48.230Z,94.08
2024-03-05T01:01:48.240Z,93.57
2024-03-05T01:02:48.175Z,93.67
2024-03-05T01:03:48.177Z,93.57
2024-03-05T01:04:48.190Z,93.87
2024-03-05T01:05:48.169Z,94.29
2024-03-05T01:06:48.141Z,93.98
2024-03-05T01:07:48.156Z,93.57
2024-03-05T01:08:48.130Z,93.26
2024-03-05T01:09:48.112Z,93.16
2024-03-05T01:10:48.170Z,93.26
2024-03-05T01:11:48.153Z,93.36
2024-03-05T01:12:48.084Z,94.33
2024-03-05T01:13:48.106Z,94.84
2024-03-05T01:14:48.068Z,94.54
2024-03-05T01:15:48.040Z,94.59
2024-03-05T01:16:48.079Z,94.64
2024-03-05T01:17:48.107Z,94.29
2024-03-05T01:18:48.016Z,94.29
2024-03-05T01:19:48.101Z,94.49
2024-03-05T01:20:47.989Z,94.49
2024-03-05T01:21:47.979Z,94.54
2024-03-05T01:22:48.042Z,93.98
2024-03-05T01:23:47.955Z,94.18
2024-03-05T01:24:47.959Z,93.67
2024-03-05T01:25:47.970Z,93.57
2024-03-05T01:26:47.924Z,93.87
2024-03-05T01:27:47.921Z,93.98
2024-03-05T01:28:47.977Z,93.87
2024-03-05T01:29:47.895Z,93.98
2024-03-05T01:30:47.920Z,93.67
2024-03-05T01:31:48.032Z,94.29
2024-03-05T01:32:47.959Z,93.98
2024-03-05T01:33:47.855Z,93.87
2024-03-05T01:34:47.916Z,93.98
2024-03-05T01:35:47.878Z,94.29
2024-03-05T01:36:47.832Z,94.08
2024-03-05T01:37:47.826Z,93.87
2024-03-05T01:38:47.790Z,94.18
2024-03-05T01:39:47.786Z,94.29
2024-03-05T01:40:47.891Z,93.98
2024-03-05T01:41:47.774Z,93.98
2024-03-05T01:42:47.799Z,93.57
2024-03-05T01:43:47.825Z,94.23
2024-03-05T01:44:47.729Z,93.57
2024-03-05T01:45:47.749Z,94.18
2024-03-05T01:46:47.812Z,93.67
2024-03-05T01:47:47.751Z,93.87
2024-03-05T01:48:47.692Z,93.57
2024-03-05T01:49:47.733Z,94.08
2024-03-05T01:50:47.693Z,94.29
2024-03-05T01:51:47.668Z,94.18
2024-03-05T01:52:47.710Z,94.80
2024-03-05T01:53:47.652Z,94.43
2024-03-05T01:54:47.627Z,95.46
2024-03-05T01:55:47.673Z,95.25
2024-03-05T01:56:47.608Z,95.15
2024-03-05T01:57:47.600Z,96.02
2024-03-05T01:58:47.644Z,96.39
2024-03-05T01:59:47.600Z,96.02
2024-03-05T02:00:47.663Z,96.33
2024-03-05T02:01:47.746Z,96.80
2024-03-05T02:02:47.563Z,96.73
2024-03-05T02:03:47.544Z,96.80
2024-03-05T02:04:47.572Z,96.12
2024-03-05T02:05:47.611Z,96.12
2024-03-05T02:06:47.498Z,96.53
2024-03-05T02:07:47.540Z,96.33
2024-03-05T02:08:47.479Z,96.43
2024-03-05T02:09:47.506Z,96.53
2024-03-05T02:10:47.486Z,96.43
2024-03-05T02:11:53.015Z,96.28
2024-03-05T02:12:48.458Z,96.22
2024-03-05T02:13:47.511Z,95.56
2024-03-05T02:14:48.608Z,95.05
2024-03-05T02:15:48.567Z,95.36
2024-03-05T02:16:48.594Z,95.25
2024-03-05T02:17:48.608Z,95.25
2024-03-05T02:18:48.533Z,95.05
2024-03-05T02:19:48.613Z,95.40
2024-03-05T02:20:48.481Z,94.54
2024-03-05T02:21:48.485Z,95.05
2024-03-05T02:22:48.497Z,94.33
2024-03-05T02:23:48.498Z,94.33
2024-03-05T02:24:48.445Z,94.74
2024-03-05T02:25:48.461Z,94.43
2024-03-05T02:26:48.543Z,93.82
2024-03-05T02:27:48.440Z,93.82
2024-03-05T02:28:48.565Z,93.92
2024-03-05T02:29:48.402Z,94.23
2024-03-05T02:30:48.409Z,94.33
2024-03-05T02:31:48.543Z,94.02
2024-03-05T02:32:48.472Z,94.12
2024-03-05T02:33:48.387Z,94.02
2024-03-05T02:34:48.447Z,93.82
2024-03-05T02:35:48.348Z,93.40
2024-03-05T02:36:48.338Z,93.51
2024-03-05T02:37:48.369Z,93.30
2024-03-05T02:38:48.327Z,93.20
2024-03-05T02:39:48.316Z,93.40
2024-03-05T02:40:48.369Z,93.30
2024-03-05T02:41:48.311Z,93.71
2024-03-05T02:42:48.411Z,93.10
2024-03-05T02:43:48.403Z,93.71
2024-03-05T02:44:48.302Z,93.82
2024-03-05T02:45:48.316Z,94.33
2024-03-05T02:46:48.330Z,94.08
2024-03-05T02:47:48.297Z,93.82
2024-03-05T02:48:48.214Z,93.82
2024-03-05T02:49:48.225Z,94.02
2024-03-05T02:50:48.248Z,94.08
2024-03-05T02:51:48.232Z,93.71
2024-03-05T02:52:48.233Z,94.29
2024-03-05T02:53:48.182Z,94.33
2024-03-05T02:54:48.171Z,94.02
2024-03-05T02:55:48.197Z,93.92
2024-03-05T02:56:48.237Z,93.61
2024-03-05T02:57:48.148Z,93.87
2024-03-05T02:58:48.172Z,93.61
2024-03-05T02:59:48.121Z,93.40
2024-03-05T03:00:48.232Z,93.51
2024-03-05T03:01:48.224Z,92.85
2024-03-05T03:02:48.117Z,94.12
2024-03-05T03:03:48.082Z,94.33
2024-03-05T03:04:48.120Z,94.80
2024-03-05T03:05:48.078Z,94.18
2024-03-05T03:06:48.052Z,94.29
2024-03-05T03:07:48.096Z,94.90
2024-03-05T03:08:48.035Z,93.98
2024-03-05T03:09:48.046Z,94.18
2024-03-05T03:10:48.075Z,93.98
2024-03-05T03:11:48.134Z,93.71
2024-03-05T03:12:47.985Z,93.67
2024-03-05T03:13:48.064Z,94.18
2024-03-05T03:14:48.039Z,94.08
2024-03-05T03:15:48.005Z,94.70
2024-03-05T03:16:47.969Z,94.54
2024-03-05T03:17:47.975Z,94.43
2024-03-05T03:18:47.926Z,94.74
2024-03-05T03:19:47.960Z,95.15
2024-03-05T03:20:47.908Z,95.05
2024-03-05T03:21:47.916Z,95.15
2024-03-05T03:22:47.928Z,95.15
2024-03-05T03:23:47.891Z,95.40
2024-03-05T03:24:47.881Z,95.61
2024-03-05T03:25:47.897Z,95.77
2024-03-05T03:26:47.889Z,95.46
2024-03-05T03:27:47.840Z,95.15
2024-03-05T03:28:47.837Z,95.20
2024-03-05T03:29:47.854Z,95.40
2024-03-05T03:30:48.807Z,94.48
2024-03-05T03:31:47.870Z,94.68
2024-03-05T03:32:47.801Z,94.54
2024-03-05T03:33:47.782Z,93.61
2024-03-05T03:34:48.023Z,94.43
2024-03-05T03:35:47.862Z,93.92
2024-03-05T03:36:47.746Z,94.07
2024-03-05T03:37:47.873Z,93.40
2024-03-05T03:38:47.737Z,92.89
2024-03-05T03:39:47.758Z,93.30
2024-03-05T03:40:47.718Z,92.89
2024-03-05T03:41:49.985Z,93.51
2024-03-05T03:42:48.674Z,93.10
2024-03-05T03:43:47.752Z,93.10
2024-03-05T03:44:48.501Z,93.44
2024-03-05T03:45:47.670Z,92.89
2024-03-05T03:46:48.650Z,93.10
2024-03-05T03:47:48.063Z,92.99
2024-03-05T03:48:47.667Z,92.38
2024-03-05T03:49:47.800Z,92.48
2024-03-05T03:50:47.664Z,92.58
2024-03-05T03:51:47.594Z,92.07
2024-03-05T03:52:47.664Z,93.10
2024-03-05T03:53:47.613Z,92.99
2024-03-05T03:54:47.601Z,92.58
2024-03-05T03:55:47.632Z,92.17
2024-03-05T03:56:47.576Z,92.27
2024-03-05T03:57:47.594Z,92.38
2024-03-05T03:58:47.570Z,92.58
2024-03-05T03:59:47.530Z,92.17
2024-03-05T04:00:47.607Z,92.27
2024-03-05T04:01:47.542Z,92.17
2024-03-05T04:02:47.536Z,92.27
2024-03-05T04:03:47.519Z,92.69
2024-03-05T04:04:47.587Z,92.69
2024-03-05T04:05:47.496Z,92.89
2024-03-05T04:06:47.465Z,92.99
2024-03-05T04:07:47.608Z,93.20
2024-03-05T04:08:47.429Z,92.89
2024-03-05T04:09:47.421Z,92.79
2024-03-05T04:10:47.525Z,92.48
2024-03-05T04:11:47.625Z,92.27
2024-03-05T04:12:47.425Z,92.48
2024-03-05T04:13:47.411Z,92.27
2024-03-05T04:14:47.399Z,92.33
2024-03-05T04:15:47.381Z,92.38
2024-03-05T04:16:47.413Z,91.97
2024-03-05T04:17:47.482Z,92.58
2024-03-05T04:18:47.673Z,92.48
2024-03-05T04:19:47.401Z,92.48
2024-03-05T04:20:47.355Z,92.38
2024-03-05T04:21:47.343Z,92.07
2024-03-05T04:22:47.350Z,92.38
2024-03-05T04:23:47.318Z,92.27
2024-03-05T04:24:47.289Z,92.79
2024-03-05T04:25:47.293Z,92.99
2024-03-05T04:26:48.357Z,93.30
2024-03-05T04:27:47.666Z,93.71
2024-03-05T04:28:47.315Z,94.54
2024-03-05T04:29:47.272Z,94.23
2024-03-05T04:30:47.307Z,94.84
2024-03-05T04:31:50.970Z,94.74
2024-03-05T04:32:58.239Z,94.95
2024-03-05T04:33:49.429Z,94.33
2024-03-05T04:34:47.257Z,94.54
2024-03-05T04:35:47.194Z,94.54
2024-03-05T04:36:47.177Z,94.84
2024-03-05T04:37:47.165Z,94.43
2024-03-05T04:38:47.174Z,94.54
2024-03-05T04:39:47.201Z,94.84
2024-03-05T04:40:47.200Z,93.61
2024-03-05T04:41:47.114Z,93.61
2024-03-05T04:42:47.095Z,94.02
2024-03-05T04:43:47.116Z,94.23
2024-03-05T04:44:47.101Z,93.51
2024-03-05T04:45:47.083Z,93.51
2024-03-05T04:46:47.239Z,93.10
2024-03-05T04:47:47.135Z,93.10
2024-03-05T04:48:47.139Z,93.10
2024-03-05T04:49:47.890Z,93.51
2024-03-05T04:50:47.036Z,93.30
2024-03-05T04:51:47.005Z,93.20
2024-03-05T04:52:47.079Z,93.82
2024-03-05T04:53:47.040Z,93.71
2024-03-05T04:54:46.998Z,93.40
2024-03-05T04:55:46.982Z,93.40
2024-03-05T04:56:46.970Z,92.99
2024-03-05T04:57:46.943Z,93.30
2024-03-05T04:58:47.034Z,93.14
2024-03-05T04:59:48.616Z,93.30
2024-03-05T05:00:47.057Z,92.99
2024-03-05T05:01:46.937Z,93.40
2024-03-05T05:02:47.073Z,93.51
2024-03-05T05:03:46.941Z,93.20
2024-03-05T05:04:46.934Z,93.10
2024-03-05T05:05:46.963Z,93.20
2024-03-05T05:06:46.926Z,92.89
2024-03-05T05:07:46.929Z,93.04
2024-03-05T05:08:46.934Z,92.89
2024-03-05T05:09:46.885Z,92.79
2024-03-05T05:10:46.919Z,92.69
2024-03-05T05:11:46.851Z,92.79
2024-03-05T05:12:46.957Z,92.99
2024-03-05T05:13:48.275Z,93.04
2024-03-05T05:14:46.798Z,92.69
2024-03-05T05:15:46.760Z,92.99
2024-03-05T05:16:46.844Z,93.61
2024-03-05T05:17:47.094Z,92.89
2024-03-05T05:18:46.755Z,93.71
2024-03-05T05:19:46.799Z,93.35
2024-03-05T05:20:46.743Z,94.02
2024-03-05T05:21:46.833Z,94.33
2024-03-05T05:22:46.951Z,95.05
2024-03-05T05:23:46.700Z,95.09
2024-03-05T05:24:46.673Z,95.40
2024-03-05T05:25:46.684Z,96.12
2024-03-05T05:26:46.689Z,96.64
2024-03-05T05:27:46.723Z,96.33
2024-03-05T05:28:46.697Z,95.97
2024-03-05T05:29:47.175Z,95.50
2024-03-05T05:30:46.680Z,95.30
2024-03-05T05:31:46.736Z,94.99
2024-03-05T05:32:46.757Z,94.68
2024-03-05T05:33:46.670Z,94.68
2024-03-05T05:34:46.682Z,94.48
2024-03-05T05:35:46.551Z,94.07
2024-03-05T05:36:46.580Z,94.07
2024-03-05T05:37:46.643Z,93.76
2024-03-05T05:38:46.560Z,93.86
2024-03-05T05:39:46.565Z,93.96
2024-03-05T05:40:46.561Z,93.82
2024-03-05T05:41:46.513Z,93.61
2024-03-05T05:42:46.502Z,93.14
2024-03-05T05:43:46.538Z,93.14
2024-03-05T05:44:46.483Z,93.24
2024-03-05T05:45:46.482Z,93.76
2024-03-05T05:46:46.542Z,93.61
2024-03-05T05:47:46.507Z,93.14
2024-03-05T05:48:46.477Z,93.55
2024-03-05T05:49:46.522Z,93.71
2024-03-05T05:50:46.462Z,94.17
2024-03-05T05:51:46.399Z,93.92
2024-03-05T05:52:46.496Z,93.82
2024-03-05T05:53:46.412Z,94.02
2024-03-05T05:54:46.410Z,94.12
2024-03-05T05:55:46.475Z,94.23
2024-03-05T05:56:46.430Z,95.15
2024-03-05T05:57:46.347Z,94.74
2024-03-05T05:58:46.337Z,95.15
2024-03-05T05:59:46.424Z,94.99
2024-03-05T06:00:46.325Z,95.81
2024-03-05T06:01:46.527Z,95.71
2024-03-05T06:02:46.331Z,95.67
2024-03-05T06:03:46.309Z,95.25
2024-03-05T06:04:46.309Z,95.05
2024-03-05T06:05:46.282Z,95.05
2024-03-05T06:06:46.273Z,95.36
2024-03-05T06:07:46.280Z,94.64
2024-03-05T06:08:46.226Z,94.37
2024-03-05T06:09:46.258Z,94.64
2024-03-05T06:10:46.310Z,94.64
2024-03-05T06:11:46.276Z,94.74
2024-03-05T06:12:46.221Z,94.48
2024-03-05T06:13:46.269Z,95.15
2024-03-05T06:14:47.096Z,95.36
2024-03-05T06:15:46.152Z,94.54
2024-03-05T06:16:46.182Z,94.23
2024-03-05T06:17:46.184Z,94.54
2024-03-05T06:18:46.164Z,94.74
2024-03-05T06:19:46.155Z,94.54
2024-03-05T06:20:46.116Z,94.64
2024-03-05T06:21:46.164Z,94.54
2024-03-05T06:22:46.137Z,94.33
2024-03-05T06:23:48.881Z,94.54
2024-03-05T06:24:46.089Z,94.64
2024-03-05T06:25:46.144Z,94.23
2024-03-05T06:26:46.072Z,94.02
2024-03-05T06:27:46.068Z,93.82
2024-03-05T06:28:49.301Z,93.71
2024-03-05T06:29:46.037Z,94.23
2024-03-05T06:30:46.041Z,94.07
2024-03-05T06:31:45.989Z,94.02
2024-03-05T06:32:48.034Z,94.12
2024-03-05T06:33:46.042Z,93.92
2024-03-05T06:34:46.092Z,93.76
2024-03-05T06:35:45.973Z,93.71
2024-03-05T06:36:48.141Z,93.92
2024-03-05T06:37:47.119Z,93.61
2024-03-05T06:38:45.942Z,93.92
2024-03-05T06:39:46.146Z,93.61
2024-03-05T06:40:45.953Z,94.02
2024-03-05T06:41:45.927Z,93.61
2024-03-05T06:42:45.908Z,93.61
2024-03-05T06:43:45.936Z,94.33
2024-03-05T06:44:45.868Z,93.92
2024-03-05T06:45:45.895Z,94.02
2024-03-05T06:46:45.923Z,94.12
2024-03-05T06:47:46.182Z,94.12
2024-03-05T06:48:45.912Z,94.02
2024-03-05T06:49:45.981Z,93.30
2024-03-05T06:50:45.818Z,93.51
2024-03-05T06:51:45.827Z,93.61
2024-03-05T06:52:45.833Z,93.92
2024-03-05T06:53:45.836Z,93.51
2024-03-05T06:54:47.467Z,93.40
2024-03-05T06:55:46.830Z,93.30
2024-03-05T06:56:45.772Z,93.30
2024-03-05T06:57:45.774Z,93.51
2024-03-05T06:58:45.884Z,93.26
2024-03-05T06:59:45.742Z,93.26
2024-03-05T07:00:45.691Z,93.36
2024-03-05T07:01:45.760Z,93.16
2024-03-05T07:02:45.650Z,93.57
2024-03-05T07:03:45.633Z,93.77
2024-03-05T07:04:45.654Z,94.12
2024-03-05T07:05:45.630Z,94.49
2024-03-05T07:06:45.612Z,94.80
2024-03-05T07:07:45.601Z,94.08
2024-03-05T07:08:45.698Z,93.98
2024-03-05T07:09:45.574Z,93.98
2024-03-05T07:10:46.508Z,94.80
2024-03-05T07:11:48.523Z,95.31
2024-03-05T07:12:46.642Z,95.42
2024-03-05T07:13:45.716Z,94.08
2024-03-05T07:14:45.524Z,94.59
2024-03-05T07:15:45.599Z,94.29
2024-03-05T07:16:46.106Z,93.77
2024-03-05T07:17:45.558Z,94.08
2024-03-05T07:18:45.523Z,93.67
2024-03-05T07:19:45.546Z,93.87
2024-03-05T07:20:45.516Z,93.77
2024-03-05T07:21:45.544Z,93.42
2024-03-05T07:22:45.515Z,93.26
2024-03-05T07:23:45.485Z,93.46
2024-03-05T07:24:45.462Z,93.46
2024-03-05T07:25:45.461Z,93.12
2024-03-05T07:26:56.632Z,92.80
2024-03-05T07:27:47.464Z,93.01
2024-03-05T07:28:45.521Z,93.12
2024-03-05T07:29:45.477Z,92.70
2024-03-05T07:30:45.455Z,92.70
2024-03-05T07:31:45.417Z,93.42
2024-03-05T07:32:45.423Z,92.60
2024-03-05T07:33:47.872Z,92.60
2024-03-05T07:34:45.406Z,92.80
2024-03-05T07:35:46.401Z,92.80
2024-03-05T07:36:45.456Z,92.08
2024-03-05T07:37:45.488Z,91.99
2024-03-05T07:38:45.382Z,92.29
2024-03-05T07:39:45.369Z,92.08
2024-03-05T07:40:45.402Z,91.84
2024-03-05T07:41:45.373Z,92.19
2024-03-05T07:42:45.374Z,92.25
2024-03-05T07:43:45.388Z,92.60
2024-03-05T07:44:45.268Z,93.27
2024-03-05T07:45:48.078Z,93.42
2024-03-05T07:46:45.304Z,93.17
2024-03-05T07:47:45.321Z,93.42
2024-03-05T07:48:45.239Z,92.91
2024-03-05T07:49:45.222Z,93.01
2024-03-05T07:50:45.203Z,92.97
2024-03-05T07:51:45.761Z,92.76
2024-03-05T07:52:45.258Z,93.38
2024-03-05T07:53:45.173Z,92.55
2024-03-05T07:54:45.154Z,92.25
2024-03-05T07:55:47.114Z,91.74
2024-03-05T07:56:46.144Z,91.94
2024-03-05T07:57:45.140Z,92.25
2024-03-05T07:58:45.179Z,92.14
2024-03-05T07:59:45.119Z,93.07
2024-03-05T08:00:45.104Z,92.66
2024-03-05T08:01:45.141Z,92.97
2024-03-05T08:02:45.179Z,93.07
2024-03-05T08:03:45.095Z,92.40
2024-03-05T08:04:45.061Z,91.38
2024-03-05T08:05:45.048Z,91.49
2024-03-05T08:06:45.140Z,91.69
2024-03-05T08:07:45.112Z,91.38
2024-03-05T08:08:45.124Z,91.22
2024-03-05T08:09:45.040Z,91.18
2024-03-05T08:10:45.162Z,91.18
2024-03-05T08:11:45.097Z,91.08
2024-03-05T08:12:45.092Z,91.38
2024-03-05T08:13:45.167Z,91.28
2024-03-05T08:14:44.971Z,90.56
2024-03-05T08:15:44.960Z,90.87
2024-03-05T08:16:44.956Z,90.26
2024-03-05T08:17:45.706Z,90.67
2024-03-05T08:18:45.537Z,91.08
2024-03-05T08:19:44.972Z,90.97
2024-03-05T08:20:44.911Z,91.63
2024-03-05T08:21:44.906Z,92.25
2024-03-05T08:22:44.908Z,92.19
2024-03-05T08:23:45.086Z,91.94
2024-03-05T08:24:44.850Z,93.12
2024-03-05T08:25:47.300Z,92.80
2024-03-05T08:26:45.848Z,92.80
2024-03-05T08:27:44.828Z,93.32
2024-03-05T08:28:44.899Z,93.12
2024-03-05T08:29:44.810Z,92.91
2024-03-05T08:30:44.789Z,92.91
2024-03-05T08:31:44.820Z,92.86
2024-03-05T08:32:45.918Z,93.32
2024-03-05T08:33:44.755Z,92.66
2024-03-05T08:34:44.771Z,92.66
2024-03-05T08:35:44.892Z,92.97
2024-03-05T08:36:44.740Z,92.97
2024-03-05T08:37:44.753Z,92.86
2024-03-05T08:38:44.809Z,92.97
2024-03-05T08:39:44.702Z,92.35
2024-03-05T08:40:44.659Z,92.55
2024-03-05T08:41:44.648Z,92.97
2024-03-05T08:42:44.659Z,92.25
2024-03-05T08:43:44.676Z,92.25
2024-03-05T08:44:44.665Z,91.42
2024-03-05T08:45:44.633Z,92.14
2024-03-05T08:46:44.654Z,91.94
2024-03-05T08:47:44.637Z,92.97
2024-03-05T08:48:44.587Z,91.90
2024-03-05T08:49:44.602Z,92.21
2024-03-05T08:50:44.695Z,92.41
2024-03-05T08:51:44.556Z,91.84
2024-03-05T08:52:44.558Z,91.59
2024-03-05T08:53:44.559Z,91.49
2024-03-05T08:54:44.587Z,91.18
2024-03-05T08:55:44.601Z,91.49
2024-03-05T08:56:44.551Z,91.80
2024-03-05T08:57:44.582Z,90.93
2024-03-05T08:58:44.540Z,91.24
2024-03-05T08:59:44.489Z,90.77
2024-03-05T09:00:44.540Z,90.97
2024-03-05T09:01:44.690Z,91.59
2024-03-05T09:02:44.452Z,91.90
2024-03-05T09:03:44.511Z,91.80
2024-03-05T09:04:44.507Z,91.90
2024-03-05T09:05:47.625Z,91.28
2024-03-05T09:06:44.433Z,91.90
2024-03-05T09:07:44.499Z,92.31
2024-03-05T09:08:44.395Z,91.59
2024-03-05T09:09:44.398Z,91.90
2024-03-05T09:10:44.414Z,92.00
2024-03-05T09:11:44.394Z,91.80
2024-03-05T09:12:44.519Z,92.21
2024-03-05T09:13:44.388Z,92.25
2024-03-05T09:14:44.457Z,91.94
2024-03-05T09:15:44.897Z,92.76
2024-03-05T09:16:44.380Z,92.86
2024-03-05T09:17:44.429Z,92.61
2024-03-05T09:18:44.264Z,93.23
2024-03-05T09:19:44.270Z,92.76
2024-03-05T09:20:44.634Z,92.72
2024-03-05T09:21:44.530Z,92.04
2024-03-05T09:22:44.245Z,92.97
2024-03-05T09:23:44.223Z,92.82
2024-03-05T09:24:44.228Z,92.93
2024-03-05T09:25:44.395Z,91.49
2024-03-05T09:26:44.206Z,91.90
2024-03-05T09:27:44.242Z,91.28
2024-03-05T09:28:44.250Z,91.59
2024-03-05T09:29:44.222Z,91.65
2024-03-05T09:30:44.218Z,90.83
2024-03-05T09:31:44.189Z,90.62
2024-03-05T09:32:44.802Z,90.73
2024-03-05T09:33:44.178Z,90.83
2024-03-05T09:34:44.194Z,90.79
2024-03-05T09:35:44.122Z,89.66
2024-03-05T09:36:44.112Z,89.83
2024-03-05T09:37:44.116Z,89.83
2024-03-05T09:38:44.126Z,88.59
2024-03-05T09:39:44.078Z,88.59
2024-03-05T09:40:44.104Z,88.49
2024-03-05T09:41:44.035Z,88.49
2024-03-05T09:42:44.015Z,88.59
2024-03-05T09:43:44.022Z,88.56
2024-03-05T09:44:44.048Z,88.14
2024-03-05T09:45:44.073Z,88.56
2024-03-05T09:46:43.990Z,87.79
2024-03-05T09:47:44.245Z,87.22
2024-03-05T09:48:44.048Z,87.29
2024-03-05T09:49:43.970Z,86.67
2024-03-05T09:50:43.937Z,86.05
2024-03-05T09:51:43.925Z,86.67
2024-03-05T09:52:43.927Z,86.67
2024-03-05T09:53:43.945Z,86.91
2024-03-05T09:54:43.929Z,86.67
2024-03-05T09:55:44.003Z,86.81
2024-03-05T09:56:43.861Z,86.77
2024-03-05T09:57:43.897Z,86.57
2024-03-05T09:58:43.962Z,87.08
2024-03-05T09:59:44.004Z,86.98
2024-03-05T10:00:43.911Z,87.08
2024-03-05T10:01:44.023Z,86.77
2024-03-05T10:02:43.880Z,86.46
2024-03-05T10:03:43.839Z,86.30
2024-03-05T10:04:43.896Z,86.57
2024-03-05T10:05:43.774Z,86.61
2024-03-05T10:06:43.765Z,86.81
2024-03-05T10:07:43.841Z,87.43
2024-03-05T10:08:43.771Z,87.22
2024-03-05T10:09:43.790Z,87.79
2024-03-05T10:10:43.848Z,86.98
2024-03-05T10:11:43.837Z,87.02
2024-03-05T10:12:43.708Z,86.98
2024-03-05T10:13:43.809Z,86.67
2024-03-05T10:14:43.705Z,86.88
2024-03-05T10:15:43.723Z,85.91
2024-03-05T10:16:43.704Z,85.64
2024-03-05T10:17:43.699Z,85.96
2024-03-05T10:18:43.682Z,86.36
2024-03-05T10:19:43.793Z,86.16
2024-03-05T10:20:43.612Z,85.64
2024-03-05T10:21:43.558Z,86.53
2024-03-05T10:22:43.612Z,85.55
2024-03-05T10:23:43.569Z,85.64
2024-03-05T10:24:43.578Z,85.91
2024-03-05T10:25:43.594Z,86.02
2024-03-05T10:26:43.652Z,86.02
2024-03-05T10:27:43.612Z,85.10
2024-03-05T10:28:43.573Z,84.48
2024-03-05T10:29:43.510Z,84.01
2024-03-05T10:30:43.556Z,84.83
2024-03-05T10:31:43.567Z,84.79
2024-03-05T10:32:43.535Z,84.79
2024-03-05T10:33:43.541Z,85.24
2024-03-05T10:34:43.516Z,84.28
2024-03-05T10:35:43.504Z,84.69
2024-03-05T10:36:43.495Z,84.17
2024-03-05T10:37:43.576Z,84.38
2024-03-05T10:38:43.435Z,84.99
2024-03-05T10:39:43.436Z,84.65
2024-03-05T10:40:43.435Z,85.12
2024-03-05T10:41:47.711Z,85.02
2024-03-05T10:42:45.441Z,83.04
2024-03-05T10:43:43.439Z,81.71
2024-03-05T10:44:43.425Z,82.63
2024-03-05T10:45:43.455Z,83.20
2024-03-05T10:46:43.433Z,83.00
2024-03-05T10:47:43.379Z,82.04
2024-03-05T10:48:43.376Z,81.05
2024-03-05T10:49:43.337Z,81.77
2024-03-05T10:50:43.430Z,82.39
2024-03-05T10:51:43.346Z,82.79
2024-03-05T10:52:43.345Z,81.73
2024-03-05T10:53:43.328Z,81.12
2024-03-05T10:54:43.312Z,80.51
2024-03-05T10:55:43.328Z,79.93
2024-03-05T10:56:45.382Z,80.65
2024-03-05T10:57:43.310Z,80.89
2024-03-05T10:58:43.246Z,80.79
2024-03-05T10:59:44.184Z,81.65
2024-03-05T11:00:43.369Z,82.15
2024-03-05T11:01:43.631Z,84.00
2024-03-05T11:02:43.191Z,83.14
2024-03-05T11:03:43.128Z,82.53
2024-03-05T11:04:43.139Z,81.91
2024-03-05T11:05:43.133Z,81.30
2024-03-05T11:06:43.814Z,81.91
2024-03-05T11:45:58.572Z,82.42
2024-03-05T11:46:21.840Z,82.01
2024-03-05T11:47:21.757Z,81.95
2024-03-05T11:48:23.383Z,82.05
2024-03-05T11:49:21.779Z,81.44
2024-03-05T11:50:21.681Z,82.01
2024-03-05T11:51:21.665Z,80.07
2024-03-05T11:52:21.737Z,80.73
2024-03-05T11:53:21.641Z,80.52
2024-03-05T11:54:23.943Z,80.18
2024-03-05T11:55:21.652Z,80.69
2024-03-05T11:56:21.623Z,81.16
2024-03-05T11:57:21.627Z,80.79
2024-03-05T11:58:21.678Z,80.14
2024-03-05T11:59:21.584Z,80.10
2024-03-05T12:00:21.586Z,80.65
2024-03-05T12:01:21.664Z,78.81
2024-03-05T12:02:21.667Z,79.83
2024-03-05T12:03:21.552Z,79.43
2024-03-05T12:04:21.584Z,79.73
2024-03-05T12:05:21.624Z,79.59
2024-03-05T12:06:21.556Z,79.32
2024-03-05T12:07:21.546Z,79.59
2024-03-05T12:08:21.503Z,78.71
2024-03-05T12:09:21.901Z,79.59
2024-03-05T12:10:21.590Z,78.57
2024-03-05T12:11:21.662Z,78.91
2024-03-05T12:12:21.453Z,79.49
2024-03-05T12:13:21.491Z,79.90
2024-03-05T12:14:21.437Z,78.84
2024-03-05T12:15:21.440Z,78.02
2024-03-05T12:16:21.550Z,78.23
2024-03-05T12:17:22.044Z,77.62
2024-03-05T12:18:21.405Z,77.11
2024-03-05T12:19:21.412Z,77.65
2024-03-05T12:20:21.384Z,77.45
2024-03-05T12:21:23.757Z,78.27
2024-03-05T12:22:21.408Z,77.96
2024-03-05T12:23:40.520Z,77.25
2024-03-05T12:24:22.347Z,77.04
2024-03-05T12:25:21.386Z,78.16
2024-03-05T12:26:21.306Z,77.89
2024-03-05T12:27:21.293Z,79.69
2024-03-05T12:28:21.363Z,79.45
2024-03-05T12:29:21.317Z,77.21
2024-03-05T12:30:24.405Z,76.56
2024-03-05T12:31:21.311Z,75.13
2024-03-05T12:32:21.342Z,75.16
2024-03-05T12:33:21.252Z,74.52
2024-03-05T12:34:21.254Z,73.03
2024-03-05T12:35:21.246Z,73.94
2024-03-05T12:36:21.214Z,73.94
2024-03-05T12:37:21.521Z,74.96
2024-03-05T12:38:21.221Z,76.90
2024-03-05T12:39:21.189Z,75.54
2024-03-05T12:40:21.216Z,75.64
2024-03-05T12:41:21.171Z,73.16
2024-03-05T12:42:21.152Z,74.55
2024-03-05T12:43:21.207Z,75.57
2024-03-05T12:44:21.172Z,74.86
2024-03-05T12:45:21.148Z,72.38
2024-03-05T12:46:21.210Z,72.38
2024-03-05T12:47:21.099Z,72.58
2024-03-05T12:48:21.137Z,73.30
2024-03-05T12:49:21.128Z,72.25
2024-03-05T12:50:21.059Z,72.45
2024-03-05T12:51:21.051Z,71.64
2024-03-05T12:52:21.137Z,69.73
2024-03-05T12:53:21.089Z,72.55
2024-03-05T12:54:21.030Z,73.16
2024-03-05T12:55:21.054Z,71.64
2024-03-05T12:56:21.034Z,70.21
2024-03-05T12:57:20.990Z,71.94
2024-03-05T12:58:22.173Z,70.10
2024-03-05T12:59:22.137Z,69.84
2024-03-05T13:00:22.110Z,71.30
2024-03-05T13:01:22.193Z,71.77
2024-03-05T13:02:22.183Z,72.01
2024-03-05T13:03:22.105Z,71.30
2024-03-05T13:04:23.033Z,71.39
2024-03-05T13:05:22.165Z,70.95
2024-03-05T13:06:22.098Z,69.06
2024-03-05T13:07:22.432Z,70.31
2024-03-05T13:08:22.064Z,70.51
2024-03-05T13:09:22.018Z,70.72
2024-03-05T13:10:22.193Z,71.36
2024-03-05T13:11:22.253Z,71.36
2024-03-05T13:12:22.068Z,72.38
2024-03-05T13:13:22.079Z,73.06
2024-03-05T13:14:24.300Z,72.34
2024-03-05T13:15:23.005Z,71.91
2024-03-05T13:16:22.035Z,72.62
2024-03-05T13:17:21.994Z,72.21
2024-03-05T13:18:21.993Z,71.09
2024-03-05T13:19:22.016Z,70.28
2024-03-05T13:20:21.965Z,70.99
2024-03-05T13:21:22.038Z,70.58
2024-03-05T13:22:22.090Z,72.38
2024-03-05T13:23:21.916Z,71.91
2024-03-05T13:24:21.915Z,70.92
2024-03-05T13:25:21.972Z,71.73
2024-03-05T13:26:21.955Z,72.82
2024-03-05T13:27:21.975Z,73.23
2024-03-05T13:28:21.978Z,73.84
2024-03-05T13:29:21.864Z,73.94
2024-03-05T13:30:21.965Z,74.25